^^
Station Historical Data
Daily Summary for May 23, 2017 Units:  Metric    English   Both
« Previous Day
Next Day »
Daily Weekly Monthly Yearly Custom
  High: Low: Average:
Temperature: 28.2 °C 13.2 °C 18.2 °C
Dew Point: -0.7 °C -3.7 °C -2.6 °C
Humidity: 31% 13% 25%
Wind Speed: 22.7km/h 0km/h 4.7km/h
Wind Gust: 38.6km/h - -
Wind- - NW
Pressure: 1016.8 hPa 1013.1 hPa -
Precipitation: 0 mm    
Historical Graphs
 
 
Tabular Data for May 23, 2017
Time Temperature Dew Point Pressure Wind Wind Speed Wind Gust Humidity Rainfall Rate (Hourly) solar Conditions
01:28 16.9 °C -2.7 °C 1015.5 hPa Calm     26% 0 mm 0.0 W/m2
01:33 16.7 °C -2.9 °C 1015.5 hPa Calm     26% 0 mm 0.0 W/m2
01:38 16.4 °C -2.7 °C 1015.5 hPa Calm     27% 0 mm 0.0 W/m2
01:49 15.9 °C -3.1 °C 1015.5 hPa Calm     27% 0 mm 0.0 W/m2
01:54 15.6 °C -2.9 °C 1015.5 hPa Calm     28% 0 mm 0.0 W/m2
01:59 15.6 °C -2.9 °C 1015.5 hPa Calm     28% 0 mm 0.0 W/m2
02:09 15.3 °C -3.1 °C 1015.5 hPa Calm     28% 0 mm 0.0 W/m2
02:14 15.2 °C -2.7 °C 1015.5 hPa Calm     29% 0 mm 0.0 W/m2
02:19 15.2 °C -2.7 °C 1015.5 hPa Calm   1.6 km/h 29% 0 mm 0.0 W/m2
02:24 15.4 °C -3 °C 1015.5 hPa Calm   3.2 km/h 28% 0 mm 0.0 W/m2
02:29 15.4 °C -3 °C 1015.5 hPa NNW 1.4 km/h 8 km/h 28% 0 mm 0.0 W/m2
02:39 15.1 °C -2.8 °C 1015.5 hPa NNW 1.4 km/h 6.4 km/h 29% 0 mm 0.0 W/m2
02:44 14.8 °C -3.1 °C 1015.5 hPa NNW 9.7 km/h 11.3 km/h 29% 0 mm 0.0 W/m2
02:49 14.5 °C -3.3 °C 1015.5 hPa NNW 9.7 km/h 12.9 km/h 29% 0 mm 0.0 W/m2
02:59 13.9 °C -3.4 °C 1015.5 hPa NNW 7.9 km/h 9.7 km/h 30% 0 mm 0.0 W/m2
03:04 13.8 °C -3 °C 1015.5 hPa Calm   9.7 km/h 31% 0 mm 0.0 W/m2
03:09 13.8 °C -3 °C 1015.5 hPa NNW 1.4 km/h 8 km/h 31% 0 mm 0.0 W/m2
03:14 14 °C -2.9 °C 1015.5 hPa NNW 7.9 km/h 9.7 km/h 31% 0 mm 0.0 W/m2
03:20 14.4 °C -3 °C 1015.5 hPa NNW 9.7 km/h 11.3 km/h 30% 0 mm 0.0 W/m2
03:30 14.7 °C -2.7 °C 1015.1 hPa NNW 9.7 km/h 11.3 km/h 30% 0 mm 0.0 W/m2
03:35 14.8 °C -3.1 °C 1015.1 hPa NNW 1.4 km/h 11.3 km/h 29% 0 mm 0.0 W/m2
03:40 14.8 °C -3.1 °C 1015.1 hPa NNW 6.4 km/h 12.9 km/h 29% 0 mm 0.0 W/m2
03:45 14.9 °C -3 °C 1015.1 hPa NNW 3.2 km/h 11.3 km/h 29% 0 mm 0.0 W/m2
03:50 15 °C -2.9 °C 1015.1 hPa NNW 11.1 km/h 14.5 km/h 29% 0 mm 0.0 W/m2
03:56 15 °C -2.9 °C 1015.1 hPa NNW 11.1 km/h 12.9 km/h 29% 0 mm 0.0 W/m2
04:05 14.9 °C -3 °C 1015.1 hPa NNW 6.4 km/h 12.9 km/h 29% 0 mm 0.0 W/m2
04:15 14.6 °C -3.2 °C 1015.1 hPa NNW 7.9 km/h 12.9 km/h 29% 0 mm 0.0 W/m2
04:20 14.7 °C -3.2 °C 1015.1 hPa Calm   12.9 km/h 29% 0 mm 0.0 W/m2
04:25 14.8 °C -3.1 °C 1015.1 hPa NNW 1.4 km/h 11.3 km/h 29% 0 mm 0.0 W/m2
04:30 14.7 °C -3.2 °C 1015.5 hPa NNW 11.1 km/h 11.3 km/h 29% 0 mm 0.0 W/m2
04:35 14.9 °C -3 °C 1015.5 hPa NNW 7.9 km/h 12.9 km/h 29% 0 mm 0.0 W/m2
04:40 14.9 °C -3.5 °C 1015.5 hPa NNW 7.9 km/h 12.9 km/h 28% 0 mm 0.0 W/m2
04:45 14.7 °C -3.2 °C 1015.5 hPa NNW 6.4 km/h 12.9 km/h 29% 0 mm 0.0 W/m2
04:56 14.4 °C -3.4 °C 1015.5 hPa NNW 6.4 km/h 12.9 km/h 29% 0 mm 0.0 W/m2
05:01 14.2 °C -3.1 °C 1015.5 hPa NNW 9.7 km/h 11.3 km/h 30% 0 mm 0.0 W/m2
05:06 14.1 °C -3.2 °C 1015.5 hPa NNW 9.7 km/h 11.3 km/h 30% 0 mm 0.0 W/m2
05:11 13.9 °C -3.4 °C 1015.5 hPa Calm   11.3 km/h 30% 0 mm 0.0 W/m2
05:16 13.9 °C -3.4 °C 1015.5 hPa NNW 9.7 km/h 12.9 km/h 30% 0 mm 0.0 W/m2
05:21 13.9 °C -3.4 °C 1015.5 hPa NNW 3.2 km/h 11.3 km/h 30% 0 mm 0.0 W/m2
05:26 13.7 °C -3.6 °C 1015.8 hPa NNW 7.9 km/h 11.3 km/h 30% 0 mm 0.0 W/m2
05:31 13.4 °C -3.4 °C 1015.5 hPa NNW 1.4 km/h 9.7 km/h 31% 0 mm 0.0 W/m2
05:36 13.2 °C -3.6 °C 1015.5 hPa Calm   9.7 km/h 31% 0 mm 0.0 W/m2
05:41 13.3 °C -3.5 °C 1015.5 hPa NNW 7.9 km/h 9.7 km/h 31% 0 mm 0.0 W/m2
05:46 13.4 °C -3.4 °C 1015.5 hPa NNW 7.9 km/h 12.9 km/h 31% 0 mm 0.0 W/m2
05:51 13.4 °C -3.4 °C 1015.5 hPa NNW 7.9 km/h 11.3 km/h 31% 0 mm 0.0 W/m2
05:56 13.6 °C -3.2 °C 1015.5 hPa NNW 7.9 km/h 11.3 km/h 31% 0 mm 0.0 W/m2
06:02 13.6 °C -3.7 °C 1015.5 hPa NNW 11.1 km/h 12.9 km/h 30% 0 mm 0.0 W/m2
06:07 13.6 °C -3.7 °C 1015.5 hPa NNW 3.2 km/h 9.7 km/h 30% 0 mm 0.0 W/m2
06:17 13.2 °C -3.6 °C 1015.5 hPa NNW 3.2 km/h 11.3 km/h 31% 0 mm 0.0 W/m2
06:32 13.6 °C -3.2 °C 1015.8 hPa NNW 3.2 km/h 9.7 km/h 31% 0 mm 7.0 W/m2
06:38 13.6 °C -3.7 °C 1015.8 hPa NNW 9.7 km/h 9.7 km/h 30% 0 mm 9.0 W/m2
06:43 13.7 °C -3.6 °C 1015.8 hPa Calm   1.6 km/h 30% 0 mm 11.0 W/m2
06:53 13.8 °C -3.5 °C 1015.8 hPa Calm   9.7 km/h 30% 0 mm 14.0 W/m2
07:06 14.3 °C -3.1 °C 1015.8 hPa Calm     30% 0 mm 18.0 W/m2
07:13 14.5 °C -3.3 °C 1015.8 hPa NNW 3.2 km/h 11.3 km/h 29% 0 mm 26.0 W/m2
07:34 14.7 °C -3.2 °C 1016.1 hPa Calm   1.6 km/h 29% 0 mm 135.0 W/m2
07:43 16.3 °C -2.3 °C 1016.1 hPa Calm     28% 0 mm 192.0 W/m2
07:54 17.4 °C -2.3 °C 1016.1 hPa Calm     26% 0 mm 230.0 W/m2
08:13 18.4 °C -2.5 °C 1016.5 hPa Calm     24% 0 mm 287.0 W/m2
08:23 18.8 °C -2.8 °C 1016.5 hPa Calm     23% 0 mm 315.0 W/m2
08:30 19.2 °C -2.4 °C 1016.8 hPa Calm     23% 0 mm 343.0 W/m2
08:45 19.8 °C -2.5 °C 1016.8 hPa NNW 7.9 km/h 19.3 km/h 22% 0 mm 367.0 W/m2
08:59 20.3 °C -2.7 °C 1016.8 hPa NNW 7.9 km/h 14.5 km/h 21% 0 mm 410.0 W/m2
09:07 20.5 °C -2.6 °C 1016.8 hPa Calm   11.3 km/h 21% 0 mm 434.0 W/m2
09:16 21 °C -2.2 °C 1016.8 hPa Calm   17.7 km/h 21% 0 mm 457.0 W/m2
11:31 26.1 °C -0.9 °C 1015.5 hPa NNW 9.7 km/h 32.2 km/h 17% 0 mm 636.0 W/m2
11:53 26.9 °C -1 °C 1015.1 hPa NNW 17.7 km/h 30.6 km/h 16% 0 mm 635.0 W/m2
11:58 27.1 °C -1.8 °C 1015.1 hPa NNW 22.7 km/h 29 km/h 15% 0 mm 631.0 W/m2
12:09 27.4 °C -1.5 °C 1015.1 hPa NNW 3.2 km/h 22.5 km/h 15% 0 mm 628.0 W/m2
12:20 27.5 °C -1.4 °C 1014.8 hPa NNW 13 km/h 32.2 km/h 15% 0 mm 628.0 W/m2
12:26 27.5 °C -1.4 °C 1014.4 hPa NNW 17.7 km/h 32.2 km/h 15% 0 mm 619.0 W/m2
12:41 27.8 °C -2.1 °C 1014.4 hPa NNW 14.3 km/h 32.2 km/h 14% 0 mm 610.0 W/m2
12:56 27.8 °C -2.1 °C 1014.1 hPa North 17.7 km/h 27.4 km/h 14% 0 mm 596.0 W/m2
13:11 27.6 °C -2.3 °C 1013.8 hPa North 19.5 km/h 38.6 km/h 14% 0 mm 577.0 W/m2
13:26 27.8 °C -2.1 °C 1013.4 hPa North 13 km/h 25.7 km/h 14% 0 mm 552.0 W/m2
13:31 27.8 °C -2.1 °C 1013.4 hPa North 13 km/h 25.7 km/h 14% 0 mm 552.0 W/m2
13:46 28.1 °C -2.9 °C 1013.4 hPa North 11.1 km/h 24.1 km/h 13% 0 mm 527.0 W/m2
13:51 28.1 °C -2.9 °C 1013.4 hPa North 22.7 km/h 27.4 km/h 13% 0 mm 508.0 W/m2
14:10 27.9 °C -3.1 °C 1013.1 hPa North 7.9 km/h 20.9 km/h 13% 0 mm 476.0 W/m2
14:18 28.1 °C -2.9 °C 1013.1 hPa North 16.3 km/h 22.5 km/h 13% 0 mm 454.0 W/m2
14:27 28.2 °C -2.8 °C 1013.1 hPa North 6.4 km/h 17.7 km/h 13% 0 mm 429.0 W/m2
18:22 24.6 °C -2.1 °C 1013.1 hPa Calm     17% 0 mm 0.0 W/m2
18:28 24.5 °C -2.2 °C 1013.4 hPa Calm     17% 0 mm 0.0 W/m2
18:40 24.3 °C -1.5 °C 1013.4 hPa Calm     18% 0 mm 0.0 W/m2
18:56 24.1 °C -1.7 °C 1013.4 hPa North 1.4 km/h 1.6 km/h 18% 0 mm 0.0 W/m2
19:11 23.8 °C -1.2 °C 1013.4 hPa Calm     19% 0 mm 0.0 W/m2
19:22 23.6 °C -1.4 °C 1013.4 hPa Calm     19% 0 mm 0.0 W/m2
19:32 23.4 °C -1.5 °C 1013.4 hPa Calm     19% 0 mm 0.0 W/m2
19:47 23.1 °C -1.8 °C 1013.4 hPa Calm     19% 0 mm 0.0 W/m2
20:03 21.4 °C -1.8 °C 1013.4 hPa Calm     21% 0 mm 0.0 W/m2
20:18 22 °C -0.7 °C 1013.8 hPa Calm     22% 0 mm 0.0 W/m2
20:34 22.4 °C -1 °C 1013.8 hPa Calm     21% 0 mm 0.0 W/m2
20:49 22.1 °C -1.3 °C 1013.8 hPa Calm     21% 0 mm 0.0 W/m2
20:55 21.6 °C -1 °C 1013.8 hPa Calm     22% 0 mm 0.0 W/m2
21:10 21.6 °C -1 °C 1014.1 hPa Calm     22% 0 mm 0.0 W/m2
21:18 21.5 °C -1.1 °C 1014.1 hPa Calm     22% 0 mm 0.0 W/m2
22:23 18 °C -1.3 °C 1014.4 hPa Calm     27% 0 mm 0.0 W/m2
22:28 17.8 °C -1.5 °C 1014.4 hPa Calm     27% 0 mm 0.0 W/m2
22:34 17.4 °C -1.8 °C 1014.4 hPa Calm     27% 0 mm 0.0 W/m2
22:44 17 °C -2.1 °C 1014.4 hPa Calm     27% 0 mm 0.0 W/m2
23:04 16.1 °C -2.4 °C 1014.4 hPa Calm     28% 0 mm 0.0 W/m2
23:10 16 °C -2 °C 1014.4 hPa Calm     29% 0 mm 0.0 W/m2
23:15 15.9 °C -2.1 °C 1014.4 hPa Calm     29% 0 mm 0.0 W/m2
23:20 16 °C -2 °C 1014.4 hPa Calm     29% 0 mm 0.0 W/m2
23:26 16.2 °C -1.9 °C 1014.4 hPa Calm     29% 0 mm 0.0 W/m2
23:31 16 °C -2 °C 1014.4 hPa Calm     29% 0 mm 0.0 W/m2
23:41 16.1 °C -1.5 °C 1014.4 hPa Calm     30% 0 mm 0.0 W/m2
23:52 16.2 °C -2.3 °C 1014.4 hPa Calm     28% 0 mm 0.0 W/m2
Canyon Roadhouse, Fishriver Canyon, Namibia
Compliments of Weather Underground - 2.25 mb